createdAt,value
2019-03-26T00:03:45.718Z,2.70
2019-03-26T00:08:48.925Z,2.90
2019-03-26T00:13:52.056Z,3.73
2019-03-26T00:18:55.346Z,2.97
2019-03-26T00:23:58.483Z,2.67
2019-03-26T00:29:01.768Z,3.17
2019-03-26T00:34:18.121Z,2.93
2019-03-26T00:39:10.031Z,3.13
2019-03-26T00:44:13.553Z,2.93
2019-03-26T00:49:16.687Z,3.73
2019-03-26T00:54:20.995Z,2.77
2019-03-26T00:59:24.407Z,3.63
2019-03-26T01:04:33.161Z,2.77
2019-03-26T01:09:32.448Z,2.97
2019-03-26T01:14:35.652Z,3.27
2019-03-26T01:19:39.093Z,2.77
2019-03-26T01:24:42.609Z,3.20
2019-03-26T01:29:45.727Z,3.03
2019-03-26T01:34:48.858Z,3.00
2019-03-26T01:39:52.250Z,2.57
2019-03-26T01:44:57.263Z,2.77
2019-03-26T01:50:00.502Z,3.30
2019-03-26T01:55:04.497Z,3.97
2019-03-26T02:00:09.764Z,3.13
2019-03-26T02:05:13.210Z,3.07
2019-03-26T02:10:16.337Z,2.40
2019-03-26T02:15:27.394Z,3.10
2019-03-26T02:20:30.827Z,2.77
2019-03-26T02:25:34.161Z,3.03
2019-03-26T02:30:37.553Z,2.63
2019-03-26T02:35:41.832Z,2.67
2019-03-26T02:40:46.825Z,2.33
2019-03-26T02:45:49.841Z,2.50
2019-03-26T02:50:53.468Z,3.03
2019-03-26T02:55:56.680Z,3.20
2019-03-26T03:01:02.094Z,2.50
2019-03-26T03:06:05.553Z,3.07
2019-03-26T03:11:08.763Z,3.30
2019-03-26T03:16:11.891Z,2.50
2019-03-26T03:21:15.006Z,2.77
2019-03-26T03:26:18.395Z,2.13
2019-03-26T03:31:22.667Z,2.60
2019-03-26T03:36:25.762Z,2.33
2019-03-26T03:41:29.260Z,2.17
2019-03-26T03:46:32.976Z,2.53
2019-03-26T03:51:39.850Z,3.50
2019-03-26T03:56:45.474Z,3.00
2019-03-26T04:01:48.863Z,2.10
2019-03-26T04:06:51.926Z,2.13
2019-03-26T04:11:55.112Z,1.70
2019-03-26T04:16:58.487Z,1.43
2019-03-26T04:22:02.003Z,1.27
2019-03-26T04:27:05.522Z,0.87
2019-03-26T04:32:09.038Z,1.07
2019-03-26T04:37:12.248Z,0.87
2019-03-26T04:42:16.072Z,1.27
2019-03-26T04:47:20.390Z,1.43
2019-03-26T04:52:23.543Z,1.70
2019-03-26T04:57:26.932Z,1.03
2019-03-26T05:02:30.166Z,1.30
2019-03-26T05:07:33.659Z,1.10
2019-03-26T05:12:37.176Z,1.30
2019-03-26T05:17:40.318Z,1.50
2019-03-26T05:22:43.603Z,1.50
2019-03-26T05:27:46.735Z,1.20
2019-03-26T05:32:50.017Z,1.53
2019-03-26T05:37:53.536Z,1.40
2019-03-26T05:42:57.054Z,1.30
2019-03-26T05:48:00.570Z,2.00
2019-03-26T05:53:03.779Z,1.60
2019-03-26T05:58:07.299Z,1.30
2019-03-26T06:03:10.815Z,1.90
2019-03-26T06:08:14.025Z,1.80
2019-03-26T06:13:17.157Z,1.90
2019-03-26T06:18:20.445Z,2.27
2019-03-26T06:23:23.591Z,1.60
2019-03-26T06:28:26.701Z,2.00
2019-03-26T06:33:30.076Z,2.00
2019-03-26T06:38:35.103Z,1.70
2019-03-26T06:43:38.342Z,1.80
2019-03-26T06:48:41.643Z,1.47
2019-03-26T06:53:44.890Z,2.07
2019-03-26T06:58:48.280Z,1.70
2019-03-26T07:03:51.464Z,1.40
2019-03-26T07:08:55.005Z,1.90
2019-03-26T07:13:58.523Z,2.10
2019-03-26T07:19:01.642Z,1.50
2019-03-26T07:24:04.847Z,1.80
2019-03-26T07:29:08.019Z,2.20
2019-03-26T07:34:11.127Z,1.60
2019-03-26T07:39:14.423Z,1.33
2019-03-26T07:44:17.649Z,1.27
2019-03-26T07:49:20.764Z,1.00
2019-03-26T07:54:23.895Z,1.27
2019-03-26T07:59:27.255Z,1.40
2019-03-26T08:04:30.467Z,1.60
2019-03-26T08:09:34.010Z,1.80
2019-03-26T08:14:37.534Z,1.07
2019-03-26T08:19:40.708Z,1.40
2019-03-26T08:24:45.816Z,1.60
2019-03-26T08:29:50.664Z,1.27
2019-03-26T08:34:54.026Z,2.10
2019-03-26T08:39:57.170Z,1.10
2019-03-26T08:45:00.447Z,1.40
2019-03-26T08:50:04.307Z,1.33
2019-03-26T08:55:08.347Z,1.73
2019-03-26T09:00:13.888Z,1.57
2019-03-26T09:05:17.589Z,2.03
2019-03-26T09:10:21.029Z,2.00
2019-03-26T09:15:24.623Z,1.83
2019-03-26T09:20:27.898Z,2.13
2019-03-26T09:25:31.477Z,1.97
2019-03-26T09:30:34.874Z,2.50
2019-03-26T09:35:38.388Z,2.50
2019-03-26T09:40:41.908Z,2.13
2019-03-26T09:45:45.118Z,3.07
2019-03-26T09:50:49.378Z,1.83
2019-03-26T09:55:52.487Z,2.53
2019-03-26T10:00:55.975Z,1.60
2019-03-26T10:05:59.188Z,1.50
2019-03-26T10:11:02.396Z,2.17
2019-03-26T10:16:05.611Z,2.07
2019-03-26T10:21:12.463Z,1.47
2019-03-26T10:26:15.715Z,1.23
2019-03-26T10:31:19.235Z,1.43
2019-03-26T10:36:22.995Z,1.00
2019-03-26T10:41:26.267Z,0.90
2019-03-26T10:46:29.788Z,0.70
2019-03-26T10:51:33.615Z,0.70
2019-03-26T10:56:37.501Z,0.90
2019-03-26T11:01:41.714Z,1.50
2019-03-26T11:06:45.082Z,1.07
2019-03-26T11:11:48.600Z,1.20
2019-03-26T11:16:51.810Z,1.20
2019-03-26T11:21:55.021Z,1.10
2019-03-26T11:26:58.241Z,1.27
2019-03-26T11:32:01.474Z,0.90
2019-03-26T11:37:07.187Z,1.30
2019-03-26T11:42:10.451Z,1.00
2019-03-26T11:47:13.836Z,1.53
2019-03-26T11:52:17.046Z,1.87
2019-03-26T11:57:20.564Z,1.93
2019-03-26T12:02:24.102Z,2.27
2019-03-26T12:07:27.600Z,2.27
2019-03-26T12:12:30.811Z,3.03
2019-03-26T12:17:34.326Z,2.77
2019-03-26T12:22:37.844Z,3.00
2019-03-26T12:27:41.055Z,3.40
2019-03-26T12:32:44.576Z,3.20
2019-03-26T12:37:48.089Z,2.40
2019-03-26T12:42:51.606Z,2.47
2019-03-26T12:47:55.124Z,3.23
2019-03-26T12:52:58.591Z,3.97
2019-03-26T12:58:01.852Z,4.20
2019-03-26T13:03:05.376Z,4.13
2019-03-26T13:08:10.960Z,3.80
2019-03-26T13:13:16.207Z,3.57
2019-03-26T13:18:24.290Z,3.17
2019-03-26T13:23:28.783Z,4.00
2019-03-26T13:28:36.198Z,3.57
2019-03-26T13:33:40.654Z,5.07
2019-03-26T13:38:45.345Z,3.67
2019-03-26T13:43:50.633Z,3.37
2019-03-26T13:48:55.147Z,3.70
2019-03-26T13:53:59.750Z,4.33
2019-03-26T13:59:06.610Z,3.50
2019-03-26T14:04:11.536Z,3.83
2019-03-26T14:09:16.492Z,3.37
2019-03-26T14:14:21.075Z,2.97
2019-03-26T14:19:25.546Z,3.17
2019-03-26T14:24:30.642Z,3.77
2019-03-26T14:29:35.512Z,3.13
2019-03-26T14:34:40.813Z,3.20
2019-03-26T14:39:47.522Z,3.03
2019-03-26T14:44:51.049Z,3.20
2019-03-26T14:49:54.568Z,3.20
2019-03-26T14:54:58.083Z,3.43
2019-03-26T15:00:01.312Z,2.37
2019-03-26T15:05:05.043Z,3.00
2019-03-26T15:10:09.252Z,2.67
2019-03-26T15:15:15.096Z,2.67
2019-03-26T15:20:18.436Z,2.90
2019-03-26T15:25:21.958Z,2.43
2019-03-26T15:30:25.163Z,3.00
2019-03-26T15:35:28.374Z,2.50
2019-03-26T15:40:31.596Z,2.27
2019-03-26T15:45:35.104Z,2.53
2019-03-26T15:50:42.643Z,2.40
2019-03-26T15:55:46.143Z,3.60
2019-03-26T16:00:49.661Z,2.93
2019-03-26T16:05:53.168Z,3.13
2019-03-26T16:10:57.464Z,3.07
2019-03-26T16:16:00.818Z,2.70
2019-03-26T16:21:04.025Z,2.80
2019-03-26T16:26:07.547Z,3.97
2019-03-26T16:31:12.537Z,3.27
2019-03-26T16:36:16.698Z,3.33
2019-03-26T16:41:23.101Z,3.40
2019-03-26T16:46:26.532Z,2.93
2019-03-26T16:51:29.778Z,3.27
2019-03-26T16:56:32.983Z,4.30
2019-03-26T17:01:37.947Z,3.47
2019-03-26T17:06:41.216Z,2.87
2019-03-26T17:11:44.743Z,3.90
2019-03-26T17:16:48.400Z,4.23
2019-03-26T17:21:52.380Z,3.43
2019-03-26T17:26:56.385Z,3.30
2019-03-26T17:31:59.723Z,3.83
2019-03-26T17:37:04.776Z,4.00
2019-03-26T17:42:17.094Z,4.40
2019-03-26T17:47:16.585Z,4.77
2019-03-26T17:52:19.937Z,4.20
2019-03-26T17:57:24.991Z,4.90
2019-03-26T18:02:28.509Z,5.10
2019-03-26T18:07:31.719Z,5.20
2019-03-26T18:12:34.929Z,4.47
2019-03-26T18:17:38.450Z,5.20
2019-03-26T18:22:41.659Z,5.10
2019-03-26T18:27:44.867Z,5.63
2019-03-26T18:32:48.081Z,4.67
2019-03-26T18:37:51.287Z,4.50
2019-03-26T18:42:54.498Z,4.63
2019-03-26T18:47:57.709Z,4.50
2019-03-26T18:53:01.229Z,4.83
2019-03-26T18:58:04.470Z,4.50
2019-03-26T19:03:08.568Z,4.97
2019-03-26T19:08:12.088Z,4.47
2019-03-26T19:13:19.977Z,4.43
2019-03-26T19:18:20.350Z,5.57
2019-03-26T19:23:23.560Z,5.73
2019-03-26T19:28:26.805Z,4.83
2019-03-26T19:33:30.289Z,5.23
2019-03-26T19:38:33.424Z,5.13
2019-03-26T19:43:36.710Z,5.67
2019-03-26T19:48:39.947Z,5.03
2019-03-26T19:53:44.305Z,5.17
2019-03-26T19:58:47.567Z,4.70
2019-03-26T20:03:51.086Z,5.67
2019-03-26T20:08:54.302Z,5.60
2019-03-26T20:13:57.534Z,5.20
2019-03-26T20:19:00.719Z,5.47
2019-03-26T20:24:04.237Z,6.77
2019-03-26T20:29:07.754Z,5.77
2019-03-26T20:34:11.270Z,6.17
2019-03-26T20:39:14.510Z,5.17
2019-03-26T20:44:17.721Z,6.20
2019-03-26T20:49:20.824Z,7.13
2019-03-26T20:54:24.111Z,7.67
2019-03-26T20:59:27.629Z,6.50
2019-03-26T21:04:30.842Z,6.60
2019-03-26T21:09:34.049Z,6.63
2019-03-26T21:14:37.262Z,7.30
2019-03-26T21:19:40.829Z,8.63
2019-03-26T21:24:44.016Z,7.80
2019-03-26T21:29:47.507Z,8.03
2019-03-26T21:34:50.823Z,7.37
2019-03-26T21:39:54.234Z,8.30
2019-03-26T21:44:57.750Z,9.67
2019-03-26T21:50:03.144Z,8.80
2019-03-26T21:55:08.164Z,9.03
2019-03-26T22:00:12.645Z,10.63
2019-03-26T22:05:16.123Z,10.30
2019-03-26T22:10:19.643Z,10.40
2019-03-26T22:15:22.782Z,11.93
2019-03-26T22:20:26.186Z,11.27
2019-03-26T22:25:33.060Z,13.00
2019-03-26T22:30:36.575Z,12.13
2019-03-26T22:35:39.991Z,12.33
2019-03-26T22:40:43.089Z,12.20
2019-03-26T22:45:46.618Z,13.80
2019-03-26T22:50:49.827Z,12.27
2019-03-26T22:55:53.243Z,11.60
2019-03-26T23:00:56.760Z,12.87
2019-03-26T23:05:59.971Z,10.53
2019-03-26T23:11:03.499Z,11.53
2019-03-26T23:16:06.697Z,10.77
2019-03-26T23:21:09.938Z,10.43
2019-03-26T23:26:14.206Z,10.63
2019-03-26T23:31:17.865Z,9.43
2019-03-26T23:36:21.897Z,9.53
2019-03-26T23:41:25.104Z,9.40
2019-03-26T23:46:29.337Z,9.17
2019-03-26T23:51:32.754Z,10.40
2019-03-26T23:56:35.864Z,9.87
